sensor_id;sensor_type;location;lat;lon;timestamp;P1;durP1;ratioP1;P2;durP2;ratioP2
38603;SDS011;24924;50.054;8.790;2024-01-15T00:02:21;33.13;;;15.80;;
38603;SDS011;24924;50.054;8.790;2024-01-15T00:04:47;36.20;;;14.60;;
38603;SDS011;24924;50.054;8.790;2024-01-15T00:07:13;44.47;;;20.15;;
38603;SDS011;24924;50.054;8.790;2024-01-15T00:09:39;32.55;;;14.48;;
38603;SDS011;24924;50.054;8.790;2024-01-15T00:12:05;39.70;;;17.75;;
38603;SDS011;24924;50.054;8.790;2024-01-15T00:14:31;29.10;;;12.03;;
38603;SDS011;24924;50.054;8.790;2024-01-15T00:16:57;39.50;;;18.83;;
38603;SDS011;24924;50.054;8.790;2024-01-15T00:19:23;38.30;;;17.08;;
38603;SDS011;24924;50.054;8.790;2024-01-15T00:21:49;39.85;;;15.80;;
38603;SDS011;24924;50.054;8.790;2024-01-15T00:24:15;42.67;;;19.47;;
38603;SDS011;24924;50.054;8.790;2024-01-15T00:26:42;38.35;;;14.05;;
38603;SDS011;24924;50.054;8.790;2024-01-15T00:29:08;38.55;;;15.45;;
38603;SDS011;24924;50.054;8.790;2024-01-15T00:31:54;34.90;;;12.93;;
38603;SDS011;24924;50.054;8.790;2024-01-15T00:34:20;34.43;;;14.90;;
38603;SDS011;24924;50.054;8.790;2024-01-15T00:36:46;36.65;;;15.00;;
38603;SDS011;24924;50.054;8.790;2024-01-15T00:39:11;33.90;;;14.27;;
38603;SDS011;24924;50.054;8.790;2024-01-15T00:41:37;32.17;;;13.20;;
38603;SDS011;24924;50.054;8.790;2024-01-15T00:44:03;35.70;;;13.00;;
38603;SDS011;24924;50.054;8.790;2024-01-15T00:46:29;37.97;;;16.53;;
38603;SDS011;24924;50.054;8.790;2024-01-15T00:48:54;36.50;;;13.35;;
38603;SDS011;24924;50.054;8.790;2024-01-15T00:51:20;37.43;;;16.17;;
38603;SDS011;24924;50.054;8.790;2024-01-15T00:53:46;29.88;;;13.82;;
38603;SDS011;24924;50.054;8.790;2024-01-15T00:56:12;29.50;;;12.52;;
38603;SDS011;24924;50.054;8.790;2024-01-15T00:58:38;38.90;;;15.77;;
38603;SDS011;24924;50.054;8.790;2024-01-15T01:01:04;29.75;;;11.25;;
38603;SDS011;24924;50.054;8.790;2024-01-15T01:03:29;35.67;;;12.70;;
38603;SDS011;24924;50.054;8.790;2024-01-15T01:05:55;29.10;;;12.32;;
38603;SDS011;24924;50.054;8.790;2024-01-15T01:08:21;31.77;;;12.73;;
38603;SDS011;24924;50.054;8.790;2024-01-15T01:10:47;38.00;;;15.57;;
38603;SDS011;24924;50.054;8.790;2024-01-15T01:13:13;36.00;;;13.07;;
38603;SDS011;24924;50.054;8.790;2024-01-15T01:15:39;32.57;;;14.17;;
38603;SDS011;24924;50.054;8.790;2024-01-15T01:18:05;30.88;;;14.27;;
38603;SDS011;24924;50.054;8.790;2024-01-15T01:20:31;44.60;;;19.08;;
38603;SDS011;24924;50.054;8.790;2024-01-15T01:22:57;29.17;;;14.00;;
38603;SDS011;24924;50.054;8.790;2024-01-15T01:25:23;40.55;;;17.77;;
38603;SDS011;24924;50.054;8.790;2024-01-15T01:27:49;32.13;;;16.05;;
38603;SDS011;24924;50.054;8.790;2024-01-15T01:30:14;34.50;;;12.63;;
38603;SDS011;24924;50.054;8.790;2024-01-15T01:32:40;35.37;;;11.57;;
38603;SDS011;24924;50.054;8.790;2024-01-15T01:35:06;40.42;;;16.45;;
38603;SDS011;24924;50.054;8.790;2024-01-15T01:37:32;33.80;;;14.93;;
38603;SDS011;24924;50.054;8.790;2024-01-15T01:39:59;41.13;;;14.52;;
38603;SDS011;24924;50.054;8.790;2024-01-15T01:42:25;28.95;;;13.05;;
38603;SDS011;24924;50.054;8.790;2024-01-15T01:44:51;34.13;;;14.63;;
38603;SDS011;24924;50.054;8.790;2024-01-15T01:47:17;29.30;;;12.48;;
38603;SDS011;24924;50.054;8.790;2024-01-15T01:49:45;31.35;;;14.70;;
38603;SDS011;24924;50.054;8.790;2024-01-15T01:52:12;34.30;;;14.40;;
38603;SDS011;24924;50.054;8.790;2024-01-15T01:54:38;30.17;;;13.97;;
38603;SDS011;24924;50.054;8.790;2024-01-15T01:57:06;27.98;;;11.35;;
38603;SDS011;24924;50.054;8.790;2024-01-15T01:59:33;36.60;;;13.50;;
38603;SDS011;24924;50.054;8.790;2024-01-15T02:02:01;30.52;;;11.85;;
38603;SDS011;24924;50.054;8.790;2024-01-15T02:04:29;31.40;;;12.32;;
38603;SDS011;24924;50.054;8.790;2024-01-15T02:06:56;40.53;;;20.93;;
38603;SDS011;24924;50.054;8.790;2024-01-15T02:09:22;35.72;;;14.80;;
38603;SDS011;24924;50.054;8.790;2024-01-15T02:11:48;36.78;;;16.67;;
38603;SDS011;24924;50.054;8.790;2024-01-15T02:14:14;32.20;;;13.32;;
38603;SDS011;24924;50.054;8.790;2024-01-15T02:16:40;33.23;;;14.73;;
38603;SDS011;24924;50.054;8.790;2024-01-15T02:19:06;27.33;;;12.35;;
38603;SDS011;24924;50.054;8.790;2024-01-15T02:21:33;36.00;;;13.82;;
38603;SDS011;24924;50.054;8.790;2024-01-15T02:23:58;30.73;;;12.73;;
38603;SDS011;24924;50.054;8.790;2024-01-15T02:26:24;34.08;;;14.70;;
38603;SDS011;24924;50.054;8.790;2024-01-15T02:28:51;25.33;;;10.43;;
38603;SDS011;24924;50.054;8.790;2024-01-15T02:31:17;25.33;;;11.73;;
38603;SDS011;24924;50.054;8.790;2024-01-15T02:33:43;26.35;;;9.98;;
38603;SDS011;24924;50.054;8.790;2024-01-15T02:36:11;30.13;;;12.37;;
38603;SDS011;24924;50.054;8.790;2024-01-15T02:38:37;38.33;;;15.90;;
38603;SDS011;24924;50.054;8.790;2024-01-15T02:41:03;36.28;;;14.00;;
38603;SDS011;24924;50.054;8.790;2024-01-15T02:43:29;26.98;;;11.57;;
38603;SDS011;24924;50.054;8.790;2024-01-15T02:45:55;32.73;;;15.70;;
38603;SDS011;24924;50.054;8.790;2024-01-15T02:48:21;34.75;;;16.92;;
38603;SDS011;24924;50.054;8.790;2024-01-15T02:50:47;38.58;;;16.67;;
38603;SDS011;24924;50.054;8.790;2024-01-15T02:53:13;30.27;;;11.93;;
38603;SDS011;24924;50.054;8.790;2024-01-15T02:55:39;36.55;;;17.67;;
38603;SDS011;24924;50.054;8.790;2024-01-15T02:58:05;40.67;;;16.30;;
38603;SDS011;24924;50.054;8.790;2024-01-15T03:00:30;31.03;;;12.13;;
38603;SDS011;24924;50.054;8.790;2024-01-15T03:02:56;42.47;;;18.05;;
38603;SDS011;24924;50.054;8.790;2024-01-15T03:05:22;31.50;;;13.23;;
38603;SDS011;24924;50.054;8.790;2024-01-15T03:07:48;34.20;;;13.10;;
38603;SDS011;24924;50.054;8.790;2024-01-15T03:10:14;25.67;;;10.63;;
38603;SDS011;24924;50.054;8.790;2024-01-15T03:12:40;35.80;;;12.48;;
38603;SDS011;24924;50.054;8.790;2024-01-15T03:15:06;36.28;;;17.10;;
38603;SDS011;24924;50.054;8.790;2024-01-15T03:17:32;32.10;;;13.18;;
38603;SDS011;24924;50.054;8.790;2024-01-15T03:19:58;35.95;;;15.60;;
38603;SDS011;24924;50.054;8.790;2024-01-15T03:22:23;33.03;;;14.63;;
38603;SDS011;24924;50.054;8.790;2024-01-15T03:24:49;35.00;;;14.65;;
38603;SDS011;24924;50.054;8.790;2024-01-15T03:27:15;41.30;;;16.10;;
38603;SDS011;24924;50.054;8.790;2024-01-15T03:29:41;31.88;;;14.93;;
38603;SDS011;24924;50.054;8.790;2024-01-15T03:32:07;33.58;;;13.35;;
38603;SDS011;24924;50.054;8.790;2024-01-15T03:34:33;38.10;;;15.00;;
38603;SDS011;24924;50.054;8.790;2024-01-15T03:36:59;35.92;;;14.55;;
38603;SDS011;24924;50.054;8.790;2024-01-15T03:39:25;37.78;;;12.27;;
38603;SDS011;24924;50.054;8.790;2024-01-15T03:41:51;45.70;;;15.05;;
38603;SDS011;24924;50.054;8.790;2024-01-15T03:44:17;33.78;;;14.23;;
38603;SDS011;24924;50.054;8.790;2024-01-15T03:46:42;28.35;;;11.45;;
38603;SDS011;24924;50.054;8.790;2024-01-15T03:49:08;32.10;;;12.97;;
38603;SDS011;24924;50.054;8.790;2024-01-15T03:51:34;33.00;;;13.77;;
38603;SDS011;24924;50.054;8.790;2024-01-15T03:54:00;28.98;;;12.82;;
38603;SDS011;24924;50.054;8.790;2024-01-15T03:56:26;35.93;;;13.87;;
38603;SDS011;24924;50.054;8.790;2024-01-15T03:58:52;36.53;;;14.20;;
38603;SDS011;24924;50.054;8.790;2024-01-15T04:01:18;28.77;;;13.38;;
38603;SDS011;24924;50.054;8.790;2024-01-15T04:03:44;35.13;;;14.07;;
38603;SDS011;24924;50.054;8.790;2024-01-15T04:06:09;34.40;;;12.15;;
38603;SDS011;24924;50.054;8.790;2024-01-15T04:08:35;31.38;;;13.10;;
38603;SDS011;24924;50.054;8.790;2024-01-15T04:11:01;37.83;;;14.73;;
38603;SDS011;24924;50.054;8.790;2024-01-15T04:13:27;31.15;;;13.05;;
38603;SDS011;24924;50.054;8.790;2024-01-15T04:15:53;38.85;;;17.50;;
38603;SDS011;24924;50.054;8.790;2024-01-15T04:18:19;31.17;;;12.37;;
38603;SDS011;24924;50.054;8.790;2024-01-15T04:20:44;31.02;;;11.90;;
38603;SDS011;24924;50.054;8.790;2024-01-15T04:23:10;34.03;;;13.60;;
38603;SDS011;24924;50.054;8.790;2024-01-15T04:25:36;40.95;;;14.65;;
38603;SDS011;24924;50.054;8.790;2024-01-15T04:28:02;40.22;;;15.32;;
38603;SDS011;24924;50.054;8.790;2024-01-15T04:30:28;38.07;;;14.77;;
38603;SDS011;24924;50.054;8.790;2024-01-15T04:32:54;31.58;;;12.80;;
38603;SDS011;24924;50.054;8.790;2024-01-15T04:35:20;35.75;;;15.63;;
38603;SDS011;24924;50.054;8.790;2024-01-15T04:37:45;38.17;;;14.30;;
38603;SDS011;24924;50.054;8.790;2024-01-15T04:40:11;32.85;;;13.10;;
38603;SDS011;24924;50.054;8.790;2024-01-15T04:42:37;35.25;;;14.52;;
38603;SDS011;24924;50.054;8.790;2024-01-15T04:45:03;35.23;;;13.17;;
38603;SDS011;24924;50.054;8.790;2024-01-15T04:47:29;32.28;;;12.82;;
38603;SDS011;24924;50.054;8.790;2024-01-15T04:49:55;31.52;;;12.05;;
38603;SDS011;24924;50.054;8.790;2024-01-15T04:52:21;25.67;;;12.83;;
38603;SDS011;24924;50.054;8.790;2024-01-15T04:54:47;25.35;;;11.88;;
38603;SDS011;24924;50.054;8.790;2024-01-15T04:57:13;29.55;;;12.18;;
38603;SDS011;24924;50.054;8.790;2024-01-15T04:59:38;33.70;;;12.20;;
38603;SDS011;24924;50.054;8.790;2024-01-15T05:02:05;33.45;;;12.15;;
38603;SDS011;24924;50.054;8.790;2024-01-15T05:04:30;26.35;;;11.15;;
38603;SDS011;24924;50.054;8.790;2024-01-15T05:06:58;28.97;;;13.07;;
38603;SDS011;24924;50.054;8.790;2024-01-15T05:09:24;29.02;;;12.80;;
38603;SDS011;24924;50.054;8.790;2024-01-15T05:11:49;27.25;;;10.70;;
38603;SDS011;24924;50.054;8.790;2024-01-15T05:14:15;32.70;;;12.83;;
38603;SDS011;24924;50.054;8.790;2024-01-15T05:16:47;31.30;;;14.55;;
38603;SDS011;24924;50.054;8.790;2024-01-15T05:19:14;27.43;;;12.50;;
38603;SDS011;24924;50.054;8.790;2024-01-15T05:21:40;36.13;;;16.23;;
38603;SDS011;24924;50.054;8.790;2024-01-15T05:24:06;26.17;;;10.65;;
38603;SDS011;24924;50.054;8.790;2024-01-15T05:26:33;30.05;;;13.73;;
38603;SDS011;24924;50.054;8.790;2024-01-15T05:28:58;29.17;;;12.03;;
38603;SDS011;24924;50.054;8.790;2024-01-15T05:31:24;35.50;;;15.70;;
38603;SDS011;24924;50.054;8.790;2024-01-15T05:33:50;23.27;;;11.15;;
38603;SDS011;24924;50.054;8.790;2024-01-15T05:36:16;30.90;;;11.95;;
38603;SDS011;24924;50.054;8.790;2024-01-15T05:38:42;33.42;;;11.57;;
38603;SDS011;24924;50.054;8.790;2024-01-15T05:41:07;28.40;;;12.07;;
38603;SDS011;24924;50.054;8.790;2024-01-15T05:43:33;29.10;;;13.90;;
38603;SDS011;24924;50.054;8.790;2024-01-15T05:45:59;31.70;;;12.03;;
38603;SDS011;24924;50.054;8.790;2024-01-15T05:48:25;25.10;;;11.88;;
38603;SDS011;24924;50.054;8.790;2024-01-15T05:50:50;27.60;;;11.77;;
38603;SDS011;24924;50.054;8.790;2024-01-15T05:53:17;30.17;;;13.13;;
38603;SDS011;24924;50.054;8.790;2024-01-15T05:55:42;28.93;;;11.90;;
38603;SDS011;24924;50.054;8.790;2024-01-15T05:58:08;28.42;;;10.32;;
38603;SDS011;24924;50.054;8.790;2024-01-15T06:00:33;27.07;;;10.53;;
38603;SDS011;24924;50.054;8.790;2024-01-15T06:03:00;28.52;;;10.32;;
38603;SDS011;24924;50.054;8.790;2024-01-15T06:05:26;25.10;;;12.63;;
38603;SDS011;24924;50.054;8.790;2024-01-15T06:07:51;32.50;;;12.18;;
38603;SDS011;24924;50.054;8.790;2024-01-15T06:10:17;35.43;;;14.70;;
38603;SDS011;24924;50.054;8.790;2024-01-15T06:12:43;29.33;;;11.82;;
38603;SDS011;24924;50.054;8.790;2024-01-15T06:15:09;26.87;;;11.63;;
38603;SDS011;24924;50.054;8.790;2024-01-15T06:17:35;31.67;;;12.85;;
38603;SDS011;24924;50.054;8.790;2024-01-15T06:20:01;27.92;;;11.85;;
38603;SDS011;24924;50.054;8.790;2024-01-15T06:22:28;26.85;;;11.00;;
38603;SDS011;24924;50.054;8.790;2024-01-15T06:24:53;29.33;;;12.47;;
38603;SDS011;24924;50.054;8.790;2024-01-15T06:27:20;28.60;;;10.98;;
38603;SDS011;24924;50.054;8.790;2024-01-15T06:29:46;28.88;;;12.75;;
38603;SDS011;24924;50.054;8.790;2024-01-15T06:32:12;42.43;;;19.37;;
38603;SDS011;24924;50.054;8.790;2024-01-15T06:34:38;29.52;;;13.40;;
38603;SDS011;24924;50.054;8.790;2024-01-15T06:37:04;32.38;;;13.07;;
38603;SDS011;24924;50.054;8.790;2024-01-15T06:39:30;33.58;;;13.02;;
38603;SDS011;24924;50.054;8.790;2024-01-15T06:41:56;36.63;;;11.90;;
38603;SDS011;24924;50.054;8.790;2024-01-15T06:44:22;36.83;;;15.48;;
38603;SDS011;24924;50.054;8.790;2024-01-15T06:46:48;33.57;;;14.07;;
38603;SDS011;24924;50.054;8.790;2024-01-15T06:49:14;36.90;;;15.98;;
38603;SDS011;24924;50.054;8.790;2024-01-15T06:51:40;32.50;;;12.30;;
38603;SDS011;24924;50.054;8.790;2024-01-15T06:54:06;34.65;;;14.27;;
38603;SDS011;24924;50.054;8.790;2024-01-15T06:56:32;33.43;;;13.13;;
38603;SDS011;24924;50.054;8.790;2024-01-15T06:58:58;29.88;;;12.00;;
38603;SDS011;24924;50.054;8.790;2024-01-15T07:01:24;36.90;;;15.27;;
38603;SDS011;24924;50.054;8.790;2024-01-15T07:03:50;33.10;;;12.20;;
38603;SDS011;24924;50.054;8.790;2024-01-15T07:06:16;31.55;;;12.15;;
38603;SDS011;24924;50.054;8.790;2024-01-15T07:08:42;32.45;;;13.18;;
38603;SDS011;24924;50.054;8.790;2024-01-15T07:11:08;26.97;;;12.20;;
38603;SDS011;24924;50.054;8.790;2024-01-15T07:13:34;33.42;;;13.20;;
38603;SDS011;24924;50.054;8.790;2024-01-15T07:16:01;34.30;;;13.30;;
38603;SDS011;24924;50.054;8.790;2024-01-15T07:18:26;28.60;;;12.63;;
38603;SDS011;24924;50.054;8.790;2024-01-15T07:20:52;29.80;;;13.23;;
38603;SDS011;24924;50.054;8.790;2024-01-15T07:23:18;31.13;;;12.97;;
38603;SDS011;24924;50.054;8.790;2024-01-15T07:25:43;36.27;;;16.30;;
38603;SDS011;24924;50.054;8.790;2024-01-15T07:28:09;33.17;;;14.77;;
38603;SDS011;24924;50.054;8.790;2024-01-15T07:30:35;34.87;;;14.63;;
38603;SDS011;24924;50.054;8.790;2024-01-15T07:33:00;29.15;;;12.40;;
38603;SDS011;24924;50.054;8.790;2024-01-15T07:35:26;29.23;;;12.43;;
38603;SDS011;24924;50.054;8.790;2024-01-15T07:37:52;28.05;;;11.85;;
38603;SDS011;24924;50.054;8.790;2024-01-15T07:40:17;31.83;;;13.57;;
38603;SDS011;24924;50.054;8.790;2024-01-15T07:42:43;38.20;;;17.00;;
38603;SDS011;24924;50.054;8.790;2024-01-15T07:45:10;29.55;;;13.00;;
38603;SDS011;24924;50.054;8.790;2024-01-15T07:47:36;34.43;;;14.43;;
38603;SDS011;24924;50.054;8.790;2024-01-15T07:50:02;28.23;;;12.30;;
38603;SDS011;24924;50.054;8.790;2024-01-15T07:52:29;29.50;;;11.60;;
38603;SDS011;24924;50.054;8.790;2024-01-15T07:54:56;31.58;;;12.88;;
38603;SDS011;24924;50.054;8.790;2024-01-15T07:57:24;27.43;;;12.20;;
38603;SDS011;24924;50.054;8.790;2024-01-15T07:59:50;29.90;;;11.70;;
38603;SDS011;24924;50.054;8.790;2024-01-15T08:02:16;32.83;;;13.27;;
38603;SDS011;24924;50.054;8.790;2024-01-15T08:04:42;30.70;;;12.30;;
38603;SDS011;24924;50.054;8.790;2024-01-15T08:07:08;27.83;;;12.60;;
38603;SDS011;24924;50.054;8.790;2024-01-15T08:09:33;27.33;;;12.43;;
38603;SDS011;24924;50.054;8.790;2024-01-15T08:11:59;30.85;;;12.75;;
38603;SDS011;24924;50.054;8.790;2024-01-15T08:14:25;28.17;;;11.53;;
38603;SDS011;24924;50.054;8.790;2024-01-15T08:16:51;34.00;;;12.55;;
38603;SDS011;24924;50.054;8.790;2024-01-15T08:19:17;28.50;;;14.38;;
38603;SDS011;24924;50.054;8.790;2024-01-15T08:21:45;30.65;;;12.98;;
38603;SDS011;24924;50.054;8.790;2024-01-15T08:24:10;25.37;;;12.10;;
38603;SDS011;24924;50.054;8.790;2024-01-15T08:26:36;38.90;;;15.70;;
38603;SDS011;24924;50.054;8.790;2024-01-15T08:29:02;26.13;;;10.83;;
38603;SDS011;24924;50.054;8.790;2024-01-15T08:31:28;32.63;;;12.75;;
38603;SDS011;24924;50.054;8.790;2024-01-15T08:33:55;28.23;;;11.80;;
38603;SDS011;24924;50.054;8.790;2024-01-15T08:36:21;32.57;;;12.40;;
38603;SDS011;24924;50.054;8.790;2024-01-15T08:38:49;30.98;;;11.80;;
38603;SDS011;24924;50.054;8.790;2024-01-15T08:41:15;28.98;;;12.73;;
38603;SDS011;24924;50.054;8.790;2024-01-15T08:43:40;24.23;;;11.57;;
38603;SDS011;24924;50.054;8.790;2024-01-15T08:46:06;29.45;;;11.68;;
38603;SDS011;24924;50.054;8.790;2024-01-15T08:48:32;25.73;;;11.60;;
38603;SDS011;24924;50.054;8.790;2024-01-15T08:50:58;30.45;;;12.90;;
38603;SDS011;24924;50.054;8.790;2024-01-15T08:53:23;32.87;;;13.40;;
38603;SDS011;24924;50.054;8.790;2024-01-15T08:55:49;24.85;;;11.98;;
38603;SDS011;24924;50.054;8.790;2024-01-15T08:58:15;25.33;;;12.68;;
38603;SDS011;24924;50.054;8.790;2024-01-15T09:00:41;27.33;;;12.03;;
38603;SDS011;24924;50.054;8.790;2024-01-15T09:03:07;25.90;;;11.75;;
38603;SDS011;24924;50.054;8.790;2024-01-15T09:05:35;28.00;;;12.00;;
38603;SDS011;24924;50.054;8.790;2024-01-15T09:08:01;25.70;;;11.60;;
38603;SDS011;24924;50.054;8.790;2024-01-15T09:10:27;24.85;;;11.73;;
38603;SDS011;24924;50.054;8.790;2024-01-15T09:12:52;22.57;;;10.30;;
38603;SDS011;24924;50.054;8.790;2024-01-15T09:15:18;24.48;;;11.48;;
38603;SDS011;24924;50.054;8.790;2024-01-15T09:17:45;30.37;;;13.77;;
38603;SDS011;24924;50.054;8.790;2024-01-15T09:20:11;29.25;;;13.27;;
38603;SDS011;24924;50.054;8.790;2024-01-15T09:22:40;28.27;;;13.50;;
38603;SDS011;24924;50.054;8.790;2024-01-15T09:25:07;27.58;;;12.13;;
38603;SDS011;24924;50.054;8.790;2024-01-15T09:27:36;25.85;;;11.30;;
38603;SDS011;24924;50.054;8.790;2024-01-15T09:30:02;30.13;;;13.33;;
38603;SDS011;24924;50.054;8.790;2024-01-15T09:32:31;27.23;;;12.32;;
38603;SDS011;24924;50.054;8.790;2024-01-15T09:34:58;29.55;;;13.07;;
38603;SDS011;24924;50.054;8.790;2024-01-15T09:37:24;24.52;;;11.20;;
38603;SDS011;24924;50.054;8.790;2024-01-15T09:39:50;23.77;;;11.38;;
38603;SDS011;24924;50.054;8.790;2024-01-15T09:42:16;22.45;;;10.00;;
38603;SDS011;24924;50.054;8.790;2024-01-15T09:44:43;23.98;;;11.60;;
38603;SDS011;24924;50.054;8.790;2024-01-15T09:47:10;27.88;;;10.75;;
38603;SDS011;24924;50.054;8.790;2024-01-15T09:49:36;22.80;;;11.83;;
38603;SDS011;24924;50.054;8.790;2024-01-15T09:52:03;25.00;;;12.48;;
38603;SDS011;24924;50.054;8.790;2024-01-15T09:54:30;26.10;;;12.88;;
38603;SDS011;24924;50.054;8.790;2024-01-15T09:56:55;27.10;;;14.47;;
38603;SDS011;24924;50.054;8.790;2024-01-15T09:59:21;22.10;;;11.48;;
38603;SDS011;24924;50.054;8.790;2024-01-15T10:01:50;23.05;;;11.32;;
38603;SDS011;24924;50.054;8.790;2024-01-15T10:04:15;22.33;;;11.00;;
38603;SDS011;24924;50.054;8.790;2024-01-15T10:06:43;27.23;;;12.93;;
38603;SDS011;24924;50.054;8.790;2024-01-15T10:09:14;20.88;;;10.68;;
38603;SDS011;24924;50.054;8.790;2024-01-15T10:11:43;22.75;;;11.02;;
38603;SDS011;24924;50.054;8.790;2024-01-15T10:14:10;23.00;;;11.23;;
38603;SDS011;24924;50.054;8.790;2024-01-15T10:16:39;21.73;;;10.68;;
38603;SDS011;24924;50.054;8.790;2024-01-15T10:19:05;22.02;;;12.27;;
38603;SDS011;24924;50.054;8.790;2024-01-15T10:21:32;21.00;;;11.43;;
38603;SDS011;24924;50.054;8.790;2024-01-15T10:24:01;23.15;;;10.90;;
38603;SDS011;24924;50.054;8.790;2024-01-15T10:26:28;21.37;;;10.30;;
38603;SDS011;24924;50.054;8.790;2024-01-15T10:28:54;19.90;;;11.13;;
38603;SDS011;24924;50.054;8.790;2024-01-15T10:31:20;29.67;;;12.50;;
38603;SDS011;24924;50.054;8.790;2024-01-15T10:33:50;22.17;;;10.18;;
38603;SDS011;24924;50.054;8.790;2024-01-15T10:36:16;25.60;;;11.57;;
38603;SDS011;24924;50.054;8.790;2024-01-15T10:38:43;19.97;;;10.27;;
38603;SDS011;24924;50.054;8.790;2024-01-15T10:41:09;20.80;;;10.88;;
38603;SDS011;24924;50.054;8.790;2024-01-15T10:43:35;22.17;;;10.73;;
38603;SDS011;24924;50.054;8.790;2024-01-15T10:46:01;20.83;;;10.57;;
38603;SDS011;24924;50.054;8.790;2024-01-15T10:48:28;21.35;;;9.60;;
38603;SDS011;24924;50.054;8.790;2024-01-15T10:50:55;27.30;;;14.98;;
38603;SDS011;24924;50.054;8.790;2024-01-15T10:53:24;18.92;;;9.02;;
38603;SDS011;24924;50.054;8.790;2024-01-15T10:55:50;23.40;;;9.83;;
38603;SDS011;24924;50.054;8.790;2024-01-15T10:58:20;22.70;;;12.88;;
38603;SDS011;24924;50.054;8.790;2024-01-15T11:00:48;23.75;;;11.25;;
38603;SDS011;24924;50.054;8.790;2024-01-15T11:03:14;25.07;;;10.87;;
38603;SDS011;24924;50.054;8.790;2024-01-15T11:05:42;21.95;;;10.07;;
38603;SDS011;24924;50.054;8.790;2024-01-15T11:08:09;21.40;;;10.10;;
38603;SDS011;24924;50.054;8.790;2024-01-15T11:10:43;23.17;;;10.65;;
38603;SDS011;24924;50.054;8.790;2024-01-15T11:13:39;17.90;;;10.35;;
38603;SDS011;24924;50.054;8.790;2024-01-15T11:16:06;19.33;;;9.93;;
38603;SDS011;24924;50.054;8.790;2024-01-15T11:18:37;19.73;;;9.73;;
38603;SDS011;24924;50.054;8.790;2024-01-15T11:23:42;15.30;;;8.20;;
38603;SDS011;24924;50.054;8.790;2024-01-15T11:29:03;16.67;;;7.37;;
38603;SDS011;24924;50.054;8.790;2024-01-15T11:31:56;17.60;;;9.68;;
38603;SDS011;24924;50.054;8.790;2024-01-15T11:34:16;20.50;;;9.82;;
38603;SDS011;24924;50.054;8.790;2024-01-15T11:39:44;20.23;;;9.52;;
38603;SDS011;24924;50.054;8.790;2024-01-15T11:42:08;17.70;;;9.13;;
38603;SDS011;24924;50.054;8.790;2024-01-15T11:44:39;19.08;;;9.25;;
38603;SDS011;24924;50.054;8.790;2024-01-15T11:47:06;19.38;;;9.05;;
38603;SDS011;24924;50.054;8.790;2024-01-15T11:55:14;16.77;;;9.03;;
38603;SDS011;24924;50.054;8.790;2024-01-15T11:57:52;17.33;;;9.65;;
38603;SDS011;24924;50.054;8.790;2024-01-15T12:00:21;16.63;;;9.07;;
38603;SDS011;24924;50.054;8.790;2024-01-15T12:02:48;14.27;;;8.65;;
38603;SDS011;24924;50.054;8.790;2024-01-15T12:05:16;18.95;;;10.35;;
38603;SDS011;24924;50.054;8.790;2024-01-15T12:07:44;17.47;;;9.83;;
38603;SDS011;24924;50.054;8.790;2024-01-15T12:10:12;19.25;;;9.45;;
38603;SDS011;24924;50.054;8.790;2024-01-15T12:12:57;14.82;;;7.78;;
38603;SDS011;24924;50.054;8.790;2024-01-15T12:15:25;13.00;;;7.20;;
38603;SDS011;24924;50.054;8.790;2024-01-15T12:17:54;16.67;;;9.95;;
38603;SDS011;24924;50.054;8.790;2024-01-15T12:20:22;16.73;;;8.90;;
38603;SDS011;24924;50.054;8.790;2024-01-15T12:22:50;16.67;;;8.25;;
38603;SDS011;24924;50.054;8.790;2024-01-15T12:25:15;15.23;;;8.52;;
38603;SDS011;24924;50.054;8.790;2024-01-15T12:27:41;18.10;;;8.90;;
38603;SDS011;24924;50.054;8.790;2024-01-15T12:30:09;20.02;;;10.45;;
38603;SDS011;24924;50.054;8.790;2024-01-15T12:32:36;16.67;;;8.45;;
38603;SDS011;24924;50.054;8.790;2024-01-15T12:35:02;16.13;;;8.13;;
38603;SDS011;24924;50.054;8.790;2024-01-15T12:37:29;16.30;;;9.20;;
38603;SDS011;24924;50.054;8.790;2024-01-15T12:39:55;18.13;;;10.00;;
38603;SDS011;24924;50.054;8.790;2024-01-15T12:42:21;16.67;;;9.13;;
38603;SDS011;24924;50.054;8.790;2024-01-15T12:44:47;19.25;;;9.55;;
38603;SDS011;24924;50.054;8.790;2024-01-15T12:47:12;12.97;;;7.23;;
38603;SDS011;24924;50.054;8.790;2024-01-15T12:49:39;15.77;;;8.32;;
38603;SDS011;24924;50.054;8.790;2024-01-15T12:52:08;17.02;;;9.70;;
38603;SDS011;24924;50.054;8.790;2024-01-15T12:54:35;16.47;;;8.37;;
38603;SDS011;24924;50.054;8.790;2024-01-15T12:57:00;16.92;;;9.85;;
38603;SDS011;24924;50.054;8.790;2024-01-15T12:59:26;14.07;;;7.70;;
38603;SDS011;24924;50.054;8.790;2024-01-15T13:01:52;15.80;;;8.83;;
38603;SDS011;24924;50.054;8.790;2024-01-15T13:04:24;17.10;;;8.85;;
38603;SDS011;24924;50.054;8.790;2024-01-15T13:06:50;13.18;;;8.00;;
38603;SDS011;24924;50.054;8.790;2024-01-15T13:09:16;15.50;;;8.07;;
38603;SDS011;24924;50.054;8.790;2024-01-15T13:11:46;12.85;;;7.22;;
38603;SDS011;24924;50.054;8.790;2024-01-15T13:14:12;15.07;;;8.38;;
38603;SDS011;24924;50.054;8.790;2024-01-15T13:16:39;18.45;;;8.70;;
38603;SDS011;24924;50.054;8.790;2024-01-15T13:19:09;15.97;;;8.73;;
38603;SDS011;24924;50.054;8.790;2024-01-15T13:21:36;16.40;;;8.70;;
38603;SDS011;24924;50.054;8.790;2024-01-15T13:24:02;11.65;;;7.20;;
38603;SDS011;24924;50.054;8.790;2024-01-15T13:26:31;13.63;;;7.63;;
38603;SDS011;24924;50.054;8.790;2024-01-15T13:28:59;13.00;;;7.20;;
38603;SDS011;24924;50.054;8.790;2024-01-15T13:31:29;15.30;;;8.13;;
38603;SDS011;24924;50.054;8.790;2024-01-15T13:33:57;15.65;;;8.68;;
38603;SDS011;24924;50.054;8.790;2024-01-15T13:36:24;13.75;;;7.70;;
38603;SDS011;24924;50.054;8.790;2024-01-15T13:38:50;14.45;;;8.68;;
38603;SDS011;24924;50.054;8.790;2024-01-15T13:41:17;15.52;;;7.78;;
38603;SDS011;24924;50.054;8.790;2024-01-15T13:43:45;15.90;;;8.77;;
38603;SDS011;24924;50.054;8.790;2024-01-15T13:46:13;14.45;;;8.43;;
38603;SDS011;24924;50.054;8.790;2024-01-15T13:48:38;15.80;;;8.75;;
38603;SDS011;24924;50.054;8.790;2024-01-15T13:51:04;16.58;;;8.50;;
38603;SDS011;24924;50.054;8.790;2024-01-15T13:53:31;18.03;;;10.07;;
38603;SDS011;24924;50.054;8.790;2024-01-15T13:55:57;15.00;;;8.05;;
38603;SDS011;24924;50.054;8.790;2024-01-15T13:58:24;13.90;;;7.22;;
38603;SDS011;24924;50.054;8.790;2024-01-15T14:00:51;14.38;;;7.65;;
38603;SDS011;24924;50.054;8.790;2024-01-15T14:03:17;13.07;;;7.37;;
38603;SDS011;24924;50.054;8.790;2024-01-15T14:05:44;12.93;;;6.22;;
38603;SDS011;24924;50.054;8.790;2024-01-15T14:08:10;16.02;;;7.93;;
38603;SDS011;24924;50.054;8.790;2024-01-15T14:10:37;14.20;;;7.30;;
38603;SDS011;24924;50.054;8.790;2024-01-15T14:13:02;14.10;;;7.33;;
38603;SDS011;24924;50.054;8.790;2024-01-15T14:15:29;18.50;;;7.55;;
38603;SDS011;24924;50.054;8.790;2024-01-15T14:17:54;15.00;;;7.67;;
38603;SDS011;24924;50.054;8.790;2024-01-15T14:20:20;13.00;;;6.90;;
38603;SDS011;24924;50.054;8.790;2024-01-15T14:22:47;10.18;;;5.82;;
38603;SDS011;24924;50.054;8.790;2024-01-15T14:25:13;13.25;;;7.28;;
38603;SDS011;24924;50.054;8.790;2024-01-15T14:27:39;14.10;;;6.80;;
38603;SDS011;24924;50.054;8.790;2024-01-15T14:30:04;10.67;;;5.70;;
38603;SDS011;24924;50.054;8.790;2024-01-15T14:32:31;13.67;;;6.87;;
38603;SDS011;24924;50.054;8.790;2024-01-15T14:34:57;13.15;;;5.28;;